Time;durP1;ratioP1;P1;durP2;ratioP2;P2;SDS_P1;SDS_P2;PMS_P1;PMS_P2;Temp;Humidity;BMP_temperature;BMP_pressure;BME280_temperature;BME280_humidity;BME280_pressure;Samples;Min_cycle;Max_cycle;Signal;HPM_P1;HPM_P2
2023/05/16 00:00:40;;;;;;;46.05;28.30;;;;;;;;;;2056275;28;20069;-91
2023/05/16 00:01:41;;;;;;;45.72;29.73;;;;;;;;;;2055985;28;20070;-91
2023/05/16 00:02:41;;;;;;;47.22;29.10;;;;;;;;;;2056528;28;20022;-91
2023/05/16 00:03:42;;;;;;;43.13;27.67;;;;;;;;;;1704360;28;10256549;-91
2023/05/16 00:04:44;;;;;;;41.55;26.95;;;;;;;;;;2056010;28;20030;-91
2023/05/16 00:05:46;;;;;;;45.88;28.15;;;;;;;;;;2055302;28;20091;-91
2023/05/16 00:06:47;;;;;;;41.95;26.85;;;;;;;;;;2056283;28;20038;-90
2023/05/16 00:07:47;;;;;;;40.83;27.50;;;;;;;;;;2056167;28;20080;-91
2023/05/16 00:08:48;;;;;;;40.85;26.95;;;;;;;;;;2056399;28;20129;-91
2023/05/16 00:09:48;;;;;;;44.22;28.02;;;;;;;;;;2056698;28;20081;-91
2023/05/16 00:10:49;;;;;;;42.35;27.10;;;;;;;;;;2055888;28;20099;-91
2023/05/16 00:11:53;;;;;;;40.70;26.50;;;;;;;;;;2055809;28;20086;-91
2023/05/16 00:12:53;;;;;;;43.28;25.88;;;;;;;;;;2047600;28;20027;-88
2023/05/16 00:13:53;;;;;;;38.33;26.50;;;;;;;;;;2047312;29;20026;-88
2023/05/16 00:14:54;;;;;;;38.42;26.05;;;;;;;;;;2047133;29;20033;-88
2023/05/16 00:15:55;;;;;;;38.90;25.38;;;;;;;;;;2047316;29;20074;-88
2023/05/16 00:16:58;;;;;;;36.80;25.38;;;;;;;;;;2055345;28;20015;-88
2023/05/16 00:17:58;;;;;;;40.85;25.27;;;;;;;;;;2056038;28;20034;-88
2023/05/16 00:18:59;;;;;;;46.30;27.83;;;;;;;;;;2056033;28;20026;-88
2023/05/16 00:20:06;;;;;;;42.85;26.60;;;;;;;;;;2056248;28;20034;-88
2023/05/16 00:21:06;;;;;;;41.97;27.38;;;;;;;;;;2058538;28;20223;-89
2023/05/16 00:22:07;;;;;;;39.65;25.25;;;;;;;;;;2055049;28;20047;-88
2023/05/16 00:23:07;;;;;;;39.15;26.05;;;;;;;;;;2047363;29;20133;-88
2023/05/16 00:24:08;;;;;;;37.25;26.33;;;;;;;;;;2055077;28;20030;-88
2023/05/16 00:25:08;;;;;;;39.60;26.17;;;;;;;;;;2056076;28;20026;-88
2023/05/16 00:26:09;;;;;;;42.30;26.27;;;;;;;;;;2055127;28;20097;-89
2023/05/16 00:27:09;;;;;;;37.30;24.50;;;;;;;;;;2055240;28;20026;-88
2023/05/16 00:28:09;;;;;;;34.42;23.35;;;;;;;;;;2046996;29;20554;-88
2023/05/16 00:29:10;;;;;;;36.55;23.92;;;;;;;;;;2055198;28;20085;-88
2023/05/16 00:30:11;;;;;;;36.47;23.92;;;;;;;;;;2055384;28;20030;-88
2023/05/16 00:31:11;;;;;;;36.97;24.20;;;;;;;;;;2047049;29;20027;-88
2023/05/16 00:32:12;;;;;;;38.45;25.30;;;;;;;;;;2054588;28;20132;-88
2023/05/16 00:33:13;;;;;;;36.03;24.95;;;;;;;;;;2055273;28;20029;-88
2023/05/16 00:34:13;;;;;;;36.50;25.20;;;;;;;;;;2055977;28;20229;-87
2023/05/16 00:35:14;;;;;;;33.03;23.10;;;;;;;;;;2059909;28;20034;-87
2023/05/16 00:36:14;;;;;;;38.28;23.65;;;;;;;;;;2055239;28;20081;-88
2023/05/16 00:37:15;;;;;;;39.63;24.83;;;;;;;;;;2055181;28;20101;-88
2023/05/16 00:38:16;;;;;;;39.67;24.30;;;;;;;;;;2055233;28;20372;-88
2023/05/16 00:39:16;;;;;;;36.67;24.08;;;;;;;;;;2058881;28;20089;-88
2023/05/16 00:40:17;;;;;;;40.00;25.17;;;;;;;;;;2065823;28;20041;-88
2023/05/16 00:41:17;;;;;;;39.53;24.40;;;;;;;;;;2066094;28;20023;-88
2023/05/16 00:42:18;;;;;;;40.30;24.77;;;;;;;;;;2065491;28;20018;-88
2023/05/16 00:43:19;;;;;;;36.05;23.60;;;;;;;;;;2061583;28;20031;-87
2023/05/16 00:44:20;;;;;;;38.33;24.50;;;;;;;;;;2060415;28;20057;-88
2023/05/16 00:45:20;;;;;;;38.20;24.33;;;;;;;;;;2055795;28;20037;-88
2023/05/16 00:46:21;;;;;;;36.75;25.73;;;;;;;;;;2055437;28;20030;-88
2023/05/16 00:47:21;;;;;;;42.15;25.58;;;;;;;;;;1697293;28;10444702;-87
2023/05/16 00:48:22;;;;;;;35.92;25.02;;;;;;;;;;2055955;28;20027;-88
2023/05/16 00:49:23;;;;;;;31.80;21.20;;;;;;;;;;2055798;28;20030;-88
2023/05/16 00:50:23;;;;;;;31.77;20.08;;;;;;;;;;2055909;28;20487;-88
2023/05/16 00:51:24;;;;;;;27.05;20.05;;;;;;;;;;2055630;28;20085;-87
2023/05/16 00:52:25;;;;;;;29.25;20.45;;;;;;;;;;2055710;28;20061;-87
2023/05/16 00:53:25;;;;;;;32.22;20.60;;;;;;;;;;2055155;28;20525;-88
2023/05/16 00:54:28;;;;;;;29.80;21.85;;;;;;;;;;2046747;29;20486;-88
2023/05/16 00:55:30;;;;;;;25.00;18.33;;;;;;;;;;2054908;28;20050;-88
2023/05/16 00:56:31;;;;;;;27.85;19.60;;;;;;;;;;2055136;28;20027;-88
2023/05/16 00:57:31;;;;;;;29.52;19.67;;;;;;;;;;2055823;28;20027;-88
2023/05/16 00:58:32;;;;;;;26.90;18.17;;;;;;;;;;2064089;28;20051;-88
2023/05/16 00:59:33;;;;;;;29.88;20.23;;;;;;;;;;1707803;28;10378389;-88
2023/05/16 01:00:35;;;;;;;29.38;19.70;;;;;;;;;;2057576;28;20022;-87
2023/05/16 01:01:36;;;;;;;33.55;20.98;;;;;;;;;;2056051;28;20027;-89
2023/05/16 01:02:37;;;;;;;36.83;21.13;;;;;;;;;;2054088;28;20123;-88
2023/05/16 01:03:38;;;;;;;30.17;19.90;;;;;;;;;;2049951;29;20120;-88
2023/05/16 01:04:39;;;;;;;27.20;18.55;;;;;;;;;;2055743;28;20265;-87
2023/05/16 01:05:39;;;;;;;29.85;20.70;;;;;;;;;;2047539;28;20129;-87
2023/05/16 01:06:40;;;;;;;31.38;21.27;;;;;;;;;;2049284;28;20020;-88
2023/05/16 01:07:42;;;;;;;31.77;21.63;;;;;;;;;;2047993;28;20023;-87
2023/05/16 01:08:42;;;;;;;29.27;19.90;;;;;;;;;;2055105;28;20110;-86
2023/05/16 01:09:43;;;;;;;31.52;20.52;;;;;;;;;;2054999;28;20518;-88
2023/05/16 01:10:52;;;;;;;29.38;20.08;;;;;;;;;;2055261;28;20573;-87
2023/05/16 01:12:00;;;;;;;29.13;19.25;;;;;;;;;;2057643;28;20029;-87
2023/05/16 01:13:13;;;;;;;25.75;18.48;;;;;;;;;;2055542;28;20029;-86
2023/05/16 01:14:24;;;;;;;29.27;18.63;;;;;;;;;;1698757;28;10375311;-87
2023/05/16 01:15:30;;;;;;;;;;;;;;;;;;2055318;28;20089;-86
2023/05/16 01:16:40;;;;;;;31.50;18.55;;;;;;;;;;2055659;28;19921;-88
2023/05/16 01:17:45;;;;;;;23.38;17.00;;;;;;;;;;2054697;28;20061;-88
2023/05/16 01:19:07;;;;;;;24.98;18.00;;;;;;;;;;2056012;28;20110;-88
2023/05/16 01:20:39;;;;;;;25.42;16.95;;;;;;;;;;2057175;28;20035;-87
2023/05/16 01:22:15;;;;;;;22.90;17.00;;;;;;;;;;2057004;28;20474;-86
2023/05/16 01:23:33;;;;;;;22.67;16.83;;;;;;;;;;2056164;28;20403;-87
2023/05/16 01:24:48;;;;;;;19.75;15.00;;;;;;;;;;1342269;28;10444850;-86
2023/05/16 01:26:04;;;;;;;24.27;16.88;;;;;;;;;;2057080;28;20015;-87
2023/05/16 01:27:05;;;;;;;20.83;16.13;;;;;;;;;;2059002;28;20474;-85
2023/05/16 01:28:06;;;;;;;25.67;17.08;;;;;;;;;;2058424;28;20027;-86
2023/05/16 01:29:07;;;;;;;24.05;15.85;;;;;;;;;;2056646;28;20070;-87
2023/05/16 01:30:16;;;;;;;20.48;14.60;;;;;;;;;;2048934;28;20090;-88
2023/05/16 01:31:16;;;;;;;21.58;15.25;;;;;;;;;;2056174;28;20023;-87
2023/05/16 01:32:17;;;;;;;21.02;15.55;;;;;;;;;;2048352;29;20483;-88
2023/05/16 01:33:18;;;;;;;22.08;15.75;;;;;;;;;;2056159;28;20027;-88
2023/05/16 01:34:19;;;;;;;23.08;15.50;;;;;;;;;;2057259;28;20030;-88
2023/05/16 01:35:19;;;;;;;22.83;16.05;;;;;;;;;;2057580;28;20031;-87
2023/05/16 01:36:37;;;;;;;21.90;15.55;;;;;;;;;;2057184;28;20041;-88
2023/05/16 01:37:46;;;;;;;19.98;15.05;;;;;;;;;;2056367;28;20027;-88
2023/05/16 01:38:50;;;;;;;19.73;15.00;;;;;;;;;;2056355;28;20458;-88
2023/05/16 01:40:06;;;;;;;22.45;15.95;;;;;;;;;;2056592;28;20053;-88
2023/05/16 01:41:10;;;;;;;20.60;14.63;;;;;;;;;;2059562;28;20026;-88
2023/05/16 01:42:29;;;;;;;19.13;15.30;;;;;;;;;;2062045;28;20091;-85
2023/05/16 01:43:34;;;;;;;21.70;15.15;;;;;;;;;;2057250;28;20048;-88
2023/05/16 01:44:45;;;;;;;17.83;13.23;;;;;;;;;;2057081;28;20486;-88
2023/05/16 01:45:54;;;;;;;;;;;;;;;;;;2057414;28;20105;-88
2023/05/16 01:46:58;;;;;;;19.80;14.10;;;;;;;;;;2056430;28;19936;-88
2023/05/16 01:48:12;;;;;;;20.23;14.65;;;;;;;;;;2056164;28;20027;-87
2023/05/16 01:49:22;;;;;;;19.00;15.02;;;;;;;;;;2056437;28;20058;-87
2023/05/16 01:50:24;;;;;;;22.10;15.60;;;;;;;;;;2056507;28;20565;-88
2023/05/16 01:51:29;;;;;;;18.70;14.82;;;;;;;;;;2056046;28;20163;-87
2023/05/16 01:52:52;;;;;;;18.98;14.40;;;;;;;;;;2056348;28;20023;-87
2023/05/16 01:54:00;;;;;;;20.90;13.82;;;;;;;;;;1777004;28;10246263;-88
2023/05/16 01:55:02;;;;;;;21.02;15.60;;;;;;;;;;2055989;28;20363;-88
2023/05/16 01:56:03;;;;;;;20.45;14.15;;;;;;;;;;2056229;28;20026;-88
2023/05/16 01:57:08;;;;;;;19.85;14.90;;;;;;;;;;1782993;28;10271444;-88
2023/05/16 01:58:11;;;;;;;23.73;15.27;;;;;;;;;;2057199;28;20256;-89
2023/05/16 01:59:12;;;;;;;20.17;14.48;;;;;;;;;;2057149;28;20022;-88
2023/05/16 02:00:12;;;;;;;18.58;15.07;;;;;;;;;;2058764;28;20100;-88
2023/05/16 02:01:13;;;;;;;20.10;15.05;;;;;;;;;;2056241;28;20058;-88
2023/05/16 02:02:17;;;;;;;20.88;15.60;;;;;;;;;;2056166;28;20042;-88
2023/05/16 02:03:17;;;;;;;21.38;15.82;;;;;;;;;;2056263;28;20243;-88
2023/05/16 02:04:18;;;;;;;22.88;16.50;;;;;;;;;;2056309;28;20026;-88
2023/05/16 02:05:18;;;;;;;24.75;16.38;;;;;;;;;;2056378;28;20116;-88
2023/05/16 02:06:19;;;;;;;25.13;17.27;;;;;;;;;;2056212;28;20101;-88
2023/05/16 02:07:19;;;;;;;20.95;16.77;;;;;;;;;;2048158;29;20495;-89
2023/05/16 02:08:20;;;;;;;22.73;16.80;;;;;;;;;;2056124;28;20022;-88
2023/05/16 02:09:20;;;;;;;23.10;17.63;;;;;;;;;;2056509;28;20574;-88
2023/05/16 02:10:21;;;;;;;22.50;17.13;;;;;;;;;;2056253;28;20022;-88
2023/05/16 02:11:22;;;;;;;25.08;17.15;;;;;;;;;;2047824;28;20050;-88
2023/05/16 02:12:23;;;;;;;24.70;17.52;;;;;;;;;;2056011;28;20054;-88
2023/05/16 02:13:24;;;;;;;27.00;18.08;;;;;;;;;;2064175;28;20034;-87
2023/05/16 02:14:25;;;;;;;23.33;17.98;;;;;;;;;;2056754;28;20327;-88
2023/05/16 02:15:26;;;;;;;25.23;17.63;;;;;;;;;;2057071;28;20464;-88
2023/05/16 02:16:28;;;;;;;22.92;17.15;;;;;;;;;;2056944;28;20046;-88
2023/05/16 02:17:30;;;;;;;24.95;18.50;;;;;;;;;;2056120;28;20073;-87
2023/05/16 02:18:30;;;;;;;25.88;17.27;;;;;;;;;;2056515;28;20031;-87
2023/05/16 02:19:31;;;;;;;25.55;17.15;;;;;;;;;;2060697;28;20065;-86
2023/05/16 02:20:32;;;;;;;25.23;17.58;;;;;;;;;;2056728;28;20046;-87
2023/05/16 02:21:32;;;;;;;24.77;18.65;;;;;;;;;;2048343;29;20019;-87
2023/05/16 02:22:33;;;;;;;23.90;17.50;;;;;;;;;;2055994;28;20058;-87
2023/05/16 02:23:33;;;;;;;27.45;17.63;;;;;;;;;;2056286;28;20027;-87
2023/05/16 02:24:35;;;;;;;24.42;17.55;;;;;;;;;;2048136;29;20083;-87
2023/05/16 02:25:35;;;;;;;24.30;18.27;;;;;;;;;;2056354;28;20026;-87
2023/05/16 02:26:35;;;;;;;26.05;17.55;;;;;;;;;;2057007;28;20042;-87
2023/05/16 02:27:36;;;;;;;25.77;17.88;;;;;;;;;;2056750;28;20045;-87
2023/05/16 02:28:36;;;;;;;25.95;18.20;;;;;;;;;;2055888;28;20050;-87
2023/05/16 02:29:37;;;;;;;26.25;17.55;;;;;;;;;;2056204;28;20023;-87
2023/05/16 02:30:37;;;;;;;29.10;19.52;;;;;;;;;;2064054;28;20435;-87
2023/05/16 02:31:37;;;;;;;26.73;17.63;;;;;;;;;;2064227;28;20112;-87
2023/05/16 02:32:38;;;;;;;24.35;17.98;;;;;;;;;;2056601;28;20122;-87
2023/05/16 02:33:40;;;;;;;23.52;17.92;;;;;;;;;;2057237;28;20390;-87
2023/05/16 02:34:41;;;;;;;27.10;18.17;;;;;;;;;;2055678;28;20094;-87
2023/05/16 02:35:42;;;;;;;25.33;17.50;;;;;;;;;;2056317;28;20540;-87
2023/05/16 02:36:42;;;;;;;26.25;18.98;;;;;;;;;;2056684;28;20023;-87
2023/05/16 02:37:42;;;;;;;29.20;18.65;;;;;;;;;;2056726;28;20492;-87
2023/05/16 02:38:43;;;;;;;24.38;18.15;;;;;;;;;;2056826;28;20106;-86
2023/05/16 02:39:43;;;;;;;27.27;17.98;;;;;;;;;;2055624;28;20490;-86
2023/05/16 02:40:44;;;;;;;23.10;17.30;;;;;;;;;;2047889;29;20130;-86
2023/05/16 02:41:44;;;;;;;23.50;17.38;;;;;;;;;;2055809;28;20023;-86
2023/05/16 02:42:46;;;;;;;27.40;17.52;;;;;;;;;;2056109;28;20487;-86
2023/05/16 02:43:47;;;;;;;28.83;17.67;;;;;;;;;;2056723;28;20045;-86
2023/05/16 02:44:48;;;;;;;28.13;18.75;;;;;;;;;;2056521;28;20517;-86
2023/05/16 02:45:49;;;;;;;27.73;17.98;;;;;;;;;;2056431;28;20077;-86
2023/05/16 02:46:53;;;;;;;28.48;18.60;;;;;;;;;;2056558;28;20471;-86
2023/05/16 02:47:53;;;;;;;28.95;18.77;;;;;;;;;;2056561;28;20053;-86
2023/05/16 02:48:54;;;;;;;27.63;19.42;;;;;;;;;;2056542;28;20427;-87
2023/05/16 02:49:55;;;;;;;30.55;19.13;;;;;;;;;;2055896;28;20018;-85
2023/05/16 02:50:56;;;;;;;27.27;18.70;;;;;;;;;;2055715;28;20022;-86
2023/05/16 02:51:56;;;;;;;27.05;18.38;;;;;;;;;;2056742;28;20486;-86
2023/05/16 02:52:58;;;;;;;27.17;18.85;;;;;;;;;;2055911;28;20031;-86
2023/05/16 02:53:59;;;;;;;27.88;19.20;;;;;;;;;;2055687;28;20569;-87
2023/05/16 02:55:00;;;;;;;25.95;18.05;;;;;;;;;;2056485;28;20473;-86
2023/05/16 02:56:00;;;;;;;24.45;18.38;;;;;;;;;;2056054;28;20030;-86
2023/05/16 02:57:01;;;;;;;30.25;18.40;;;;;;;;;;2048670;29;20047;-86
2023/05/16 02:58:01;;;;;;;26.48;18.30;;;;;;;;;;2049306;29;20115;-86
2023/05/16 02:59:03;;;;;;;23.83;17.80;;;;;;;;;;2049053;29;20019;-86
2023/05/16 03:00:04;;;;;;;23.15;17.38;;;;;;;;;;2056162;28;20407;-87
2023/05/16 03:01:05;;;;;;;22.52;16.80;;;;;;;;;;2056220;28;20042;-87
2023/05/16 03:02:05;;;;;;;23.02;17.75;;;;;;;;;;2056279;28;20463;-88
2023/05/16 03:03:06;;;;;;;31.95;19.27;;;;;;;;;;2055626;28;20121;-88
2023/05/16 03:04:06;;;;;;;27.77;18.92;;;;;;;;;;2055954;28;20109;-87
2023/05/16 03:05:08;;;;;;;27.33;18.48;;;;;;;;;;2055614;28;20073;-88
2023/05/16 03:06:09;;;;;;;29.40;18.98;;;;;;;;;;2055589;28;20034;-87
2023/05/16 03:07:09;;;;;;;26.58;19.27;;;;;;;;;;2056321;28;20034;-88
2023/05/16 03:08:10;;;;;;;24.52;19.10;;;;;;;;;;2055506;28;20023;-87
2023/05/16 03:09:10;;;;;;;27.45;18.65;;;;;;;;;;2055656;28;20030;-87
2023/05/16 03:10:10;;;;;;;28.05;19.33;;;;;;;;;;2061289;28;20058;-87
2023/05/16 03:11:11;;;;;;;29.23;20.77;;;;;;;;;;2066404;28;20018;-87
2023/05/16 03:12:11;;;;;;;28.20;19.42;;;;;;;;;;2066191;28;20015;-87
2023/05/16 03:13:11;;;;;;;27.42;19.42;;;;;;;;;;2065109;28;20099;-88
2023/05/16 03:14:12;;;;;;;27.77;19.73;;;;;;;;;;2062918;28;20023;-88
2023/05/16 03:15:12;;;;;;;28.45;19.30;;;;;;;;;;2060920;28;20061;-88
2023/05/16 03:16:13;;;;;;;30.45;19.27;;;;;;;;;;2057135;28;20030;-89
2023/05/16 03:17:13;;;;;;;25.27;19.88;;;;;;;;;;2058316;28;20045;-88
2023/05/16 03:18:14;;;;;;;28.63;19.27;;;;;;;;;;2056767;28;20038;-88
2023/05/16 03:19:15;;;;;;;28.38;19.65;;;;;;;;;;2056593;28;20526;-88
2023/05/16 03:20:15;;;;;;;27.10;19.15;;;;;;;;;;2056578;28;20110;-88
2023/05/16 03:21:15;;;;;;;25.05;18.77;;;;;;;;;;2055723;28;20019;-88
2023/05/16 03:22:16;;;;;;;26.73;19.17;;;;;;;;;;2055786;28;20059;-89
2023/05/16 03:23:16;;;;;;;27.92;20.23;;;;;;;;;;1694242;28;10344216;-88
2023/05/16 03:24:17;;;;;;;27.65;19.60;;;;;;;;;;2047633;29;20031;-88
2023/05/16 03:25:17;;;;;;;26.52;19.27;;;;;;;;;;2055551;28;20054;-88
2023/05/16 03:26:18;;;;;;;29.65;20.55;;;;;;;;;;2055964;28;20039;-88
2023/05/16 03:27:18;;;;;;;30.50;20.15;;;;;;;;;;2055524;28;20022;-88
2023/05/16 03:28:19;;;;;;;36.47;20.38;;;;;;;;;;2055653;28;20038;-88
2023/05/16 03:29:19;;;;;;;28.10;20.25;;;;;;;;;;2065474;28;20094;-88
2023/05/16 03:30:20;;;;;;;33.28;19.65;;;;;;;;;;2066479;28;20038;-88
2023/05/16 03:31:21;;;;;;;28.42;20.88;;;;;;;;;;2066043;28;20025;-88
2023/05/16 03:32:21;;;;;;;31.40;19.95;;;;;;;;;;2064303;28;20467;-87
2023/05/16 03:33:23;;;;;;;28.73;20.85;;;;;;;;;;2063113;28;20061;-88
2023/05/16 03:34:23;;;;;;;30.42;21.30;;;;;;;;;;2060662;28;20061;-88
2023/05/16 03:35:35;;;;;;;32.94;21.42;;;;;;;;;;2034834;28;10256938;-88
2023/05/16 03:36:38;;;;;;;33.25;22.55;;;;;;;;;;2057840;28;20272;-88
2023/05/16 03:37:38;;;;;;;34.75;23.38;;;;;;;;;;2056529;28;20033;-88
2023/05/16 03:38:40;;;;;;;31.92;21.33;;;;;;;;;;2055644;28;20046;-88
2023/05/16 03:39:40;;;;;;;33.80;21.52;;;;;;;;;;2047613;28;20078;-88
2023/05/16 03:40:41;;;;;;;32.10;23.00;;;;;;;;;;2054751;28;20023;-88
2023/05/16 03:41:41;;;;;;;36.42;23.48;;;;;;;;;;2056306;28;20030;-88
2023/05/16 03:42:41;;;;;;;33.03;22.38;;;;;;;;;;2056376;28;20027;-88
2023/05/16 03:43:42;;;;;;;36.65;23.42;;;;;;;;;;2055526;28;20026;-88
2023/05/16 03:44:45;;;;;;;38.75;24.08;;;;;;;;;;2049790;29;20021;-90
2023/05/16 03:45:46;;;;;;;34.15;23.23;;;;;;;;;;2048799;29;20043;-88
2023/05/16 03:46:46;;;;;;;36.55;23.00;;;;;;;;;;2047773;29;20020;-88
2023/05/16 03:47:50;;;;;;;36.00;23.48;;;;;;;;;;2055522;28;20031;-88
2023/05/16 03:48:50;;;;;;;32.42;22.27;;;;;;;;;;2055230;28;20415;-88
2023/05/16 03:49:51;;;;;;;34.95;22.83;;;;;;;;;;2056133;28;20062;-87
2023/05/16 03:50:52;;;;;;;34.92;22.92;;;;;;;;;;2055663;28;20022;-88
2023/05/16 03:51:53;;;;;;;33.70;22.95;;;;;;;;;;2055456;28;20038;-88
2023/05/16 03:52:53;;;;;;;35.97;23.00;;;;;;;;;;2055351;28;20011;-88
2023/05/16 03:53:53;;;;;;;30.85;21.98;;;;;;;;;;2055169;28;20034;-88
2023/05/16 03:54:54;;;;;;;33.53;23.02;;;;;;;;;;2055928;28;20023;-88
2023/05/16 03:55:54;;;;;;;37.20;22.45;;;;;;;;;;2054995;28;20518;-88
2023/05/16 03:56:54;;;;;;;33.95;22.08;;;;;;;;;;2047662;29;20062;-87
2023/05/16 03:57:55;;;;;;;35.72;21.33;;;;;;;;;;2047504;29;20047;-87
2023/05/16 03:58:57;;;;;;;31.08;21.05;;;;;;;;;;2047312;29;20019;-88
2023/05/16 03:59:57;;;;;;;31.42;21.75;;;;;;;;;;2047359;28;20050;-88
2023/05/16 04:00:58;;;;;;;35.95;22.63;;;;;;;;;;2055193;28;20027;-87
2023/05/16 04:01:58;;;;;;;36.85;23.20;;;;;;;;;;2055251;28;20455;-87
2023/05/16 04:02:59;;;;;;;38.88;22.55;;;;;;;;;;2055688;28;20019;-87
2023/05/16 04:03:59;;;;;;;33.80;22.20;;;;;;;;;;2059849;28;20031;-88
2023/05/16 04:05:00;;;;;;;32.10;22.13;;;;;;;;;;2055748;28;20021;-87
2023/05/16 04:06:00;;;;;;;34.10;22.40;;;;;;;;;;2047312;28;20031;-88
2023/05/16 04:07:01;;;;;;;32.35;21.67;;;;;;;;;;2055291;28;20094;-87
2023/05/16 04:08:03;;;;;;;30.83;21.80;;;;;;;;;;2056255;28;20042;-87
2023/05/16 04:09:03;;;;;;;31.10;21.33;;;;;;;;;;2056364;28;20070;-87
2023/05/16 04:10:05;;;;;;;34.97;23.88;;;;;;;;;;2055341;28;20027;-88
2023/05/16 04:11:06;;;;;;;28.20;20.08;;;;;;;;;;2047325;28;20115;-87
2023/05/16 04:12:06;;;;;;;32.13;20.35;;;;;;;;;;2055456;28;20026;-87
2023/05/16 04:13:07;;;;;;;29.27;21.08;;;;;;;;;;2056088;28;20057;-87
2023/05/16 04:14:07;;;;;;;30.25;21.02;;;;;;;;;;2055847;28;20033;-87
2023/05/16 04:15:08;;;;;;;29.35;20.60;;;;;;;;;;2055932;28;20041;-87
2023/05/16 04:16:08;;;;;;;31.15;19.85;;;;;;;;;;2056114;28;20038;-88
2023/05/16 04:17:09;;;;;;;30.25;20.92;;;;;;;;;;2056215;28;20478;-88
2023/05/16 04:18:10;;;;;;;31.05;20.65;;;;;;;;;;2055201;28;20482;-87
2023/05/16 04:19:10;;;;;;;29.05;19.83;;;;;;;;;;2047454;29;20055;-87
2023/05/16 04:20:11;;;;;;;27.30;18.73;;;;;;;;;;2055337;28;20359;-87
2023/05/16 04:21:14;;;;;;;25.73;17.55;;;;;;;;;;2055263;28;20026;-88
2023/05/16 04:22:14;;;;;;;22.67;16.05;;;;;;;;;;2055154;28;20187;-88
2023/05/16 04:23:14;;;;;;;20.20;15.50;;;;;;;;;;2055956;28;20086;-88
2023/05/16 04:24:15;;;;;;;20.38;15.15;;;;;;;;;;2055350;28;20150;-88
2023/05/16 04:25:16;;;;;;;19.15;14.57;;;;;;;;;;2055318;28;20071;-88
2023/05/16 04:26:16;;;;;;;22.70;16.75;;;;;;;;;;2055337;28;20463;-89
2023/05/16 04:27:17;;;;;;;21.48;15.73;;;;;;;;;;2055129;28;20038;-88
2023/05/16 04:28:17;;;;;;;24.17;16.50;;;;;;;;;;2047399;29;20120;-88
2023/05/16 04:29:18;;;;;;;19.25;14.57;;;;;;;;;;2055114;28;20505;-89
2023/05/16 04:30:18;;;;;;;19.90;14.25;;;;;;;;;;2055967;28;20027;-88
2023/05/16 04:31:19;;;;;;;22.55;15.77;;;;;;;;;;2055846;28;20136;-87
2023/05/16 04:32:19;;;;;;;20.17;15.27;;;;;;;;;;2056010;28;20489;-88
2023/05/16 04:33:20;;;;;;;19.48;15.05;;;;;;;;;;2055817;28;20122;-89
2023/05/16 04:34:21;;;;;;;20.90;15.73;;;;;;;;;;2055735;28;20125;-89
2023/05/16 04:35:22;;;;;;;26.38;16.33;;;;;;;;;;2055711;28;20030;-89
2023/05/16 04:36:22;;;;;;;23.38;15.90;;;;;;;;;;2055943;28;20110;-88
2023/05/16 04:37:23;;;;;;;25.00;17.00;;;;;;;;;;2054803;28;20038;-89
2023/05/16 04:38:23;;;;;;;21.73;15.80;;;;;;;;;;2055169;28;20041;-87
2023/05/16 04:39:24;;;;;;;21.23;15.90;;;;;;;;;;2055090;28;20096;-88
2023/05/16 04:40:24;;;;;;;22.88;15.93;;;;;;;;;;2055026;28;20034;-87
2023/05/16 04:41:25;;;;;;;19.25;14.40;;;;;;;;;;2054967;28;20035;-88
2023/05/16 04:42:25;;;;;;;23.02;15.35;;;;;;;;;;2054475;28;20763;-88
2023/05/16 04:43:26;;;;;;;20.23;14.55;;;;;;;;;;2054513;28;20118;-87
2023/05/16 04:44:27;;;;;;;19.08;14.63;;;;;;;;;;2054587;28;20400;-88
2023/05/16 04:45:27;;;;;;;18.02;14.52;;;;;;;;;;2054613;28;20122;-88
2023/05/16 04:46:27;;;;;;;18.63;14.73;;;;;;;;;;2054652;28;20085;-87
2023/05/16 04:47:28;;;;;;;19.90;15.23;;;;;;;;;;2054953;28;20038;-87
2023/05/16 04:48:29;;;;;;;19.50;14.45;;;;;;;;;;2054732;28;20151;-87
2023/05/16 04:49:30;;;;;;;15.63;12.95;;;;;;;;;;2055149;28;20439;-87
2023/05/16 04:50:30;;;;;;;19.20;13.23;;;;;;;;;;2056107;28;20090;-88
2023/05/16 04:51:32;;;;;;;16.20;12.57;;;;;;;;;;2056020;28;20022;-87
2023/05/16 04:52:33;;;;;;;17.63;12.48;;;;;;;;;;2055192;28;20038;-89
2023/05/16 04:53:33;;;;;;;17.52;11.98;;;;;;;;;;2054197;28;20027;-88
2023/05/16 04:54:34;;;;;;;14.90;12.02;;;;;;;;;;2054186;28;20069;-87
2023/05/16 04:55:34;;;;;;;15.25;12.40;;;;;;;;;;2057658;28;20039;-87
2023/05/16 04:56:35;;;;;;;19.30;12.20;;;;;;;;;;2055981;28;20042;-87
2023/05/16 04:57:35;;;;;;;14.32;12.30;;;;;;;;;;2053611;28;20144;-88
2023/05/16 04:58:36;;;;;;;15.07;11.40;;;;;;;;;;2045915;28;20039;-86
2023/05/16 04:59:37;;;;;;;12.57;10.32;;;;;;;;;;2053800;28;20383;-87
2023/05/16 05:00:38;;;;;;;12.98;10.63;;;;;;;;;;2053977;28;20117;-86
2023/05/16 05:01:38;;;;;;;12.07;10.77;;;;;;;;;;2046147;29;20035;-86
2023/05/16 05:02:39;;;;;;;15.43;11.00;;;;;;;;;;2054514;28;20026;-86
2023/05/16 05:03:39;;;;;;;16.35;11.63;;;;;;;;;;2054163;28;20070;-87
2023/05/16 05:04:39;;;;;;;15.63;11.57;;;;;;;;;;2054426;28;20206;-85
2023/05/16 05:05:40;;;;;;;14.55;11.65;;;;;;;;;;2055382;28;20022;-87
2023/05/16 05:06:40;;;;;;;14.65;11.25;;;;;;;;;;2055477;28;20465;-87
2023/05/16 05:07:42;;;;;;;15.57;11.45;;;;;;;;;;2046848;29;20067;-87
2023/05/16 05:08:42;;;;;;;17.48;12.40;;;;;;;;;;2046617;28;20031;-88
2023/05/16 05:09:42;;;;;;;17.95;11.90;;;;;;;;;;2055050;28;20533;-86
2023/05/16 05:10:43;;;;;;;18.35;12.57;;;;;;;;;;2054493;28;20030;-87
2023/05/16 05:11:43;;;;;;;15.32;12.07;;;;;;;;;;2054206;28;20029;-86
2023/05/16 05:12:44;;;;;;;15.63;12.15;;;;;;;;;;2046555;29;20031;-87
2023/05/16 05:13:44;;;;;;;13.48;11.68;;;;;;;;;;2054642;28;20158;-87
2023/05/16 05:14:45;;;;;;;14.07;11.32;;;;;;;;;;2055251;28;20082;-87
2023/05/16 05:15:45;;;;;;;16.10;12.10;;;;;;;;;;2054459;28;20479;-85
2023/05/16 05:16:45;;;;;;;14.73;11.90;;;;;;;;;;2054365;28;20031;-86
2023/05/16 05:17:46;;;;;;;17.20;10.82;;;;;;;;;;2054824;28;20049;-86
2023/05/16 05:18:47;;;;;;;12.95;11.00;;;;;;;;;;2053312;28;20027;-86
2023/05/16 05:19:47;;;;;;;16.73;11.52;;;;;;;;;;2054092;28;20042;-86
2023/05/16 05:20:49;;;;;;;13.63;10.90;;;;;;;;;;2055003;28;20109;-86
2023/05/16 05:21:49;;;;;;;14.55;10.48;;;;;;;;;;2054833;28;20342;-86
2023/05/16 05:22:50;;;;;;;15.88;11.07;;;;;;;;;;2054959;28;20431;-86
2023/05/16 05:23:50;;;;;;;15.63;11.30;;;;;;;;;;2054340;28;20057;-86
2023/05/16 05:24:50;;;;;;;14.25;11.57;;;;;;;;;;2054879;28;20026;-85
2023/05/16 05:25:51;;;;;;;14.88;11.18;;;;;;;;;;1703829;28;10246185;-86
2023/05/16 05:26:51;;;;;;;14.25;10.55;;;;;;;;;;2054304;28;20100;-86
2023/05/16 05:27:52;;;;;;;16.33;11.48;;;;;;;;;;2054198;28;20513;-86
2023/05/16 05:28:52;;;;;;;15.52;10.48;;;;;;;;;;2054663;28;20034;-88
2023/05/16 05:29:53;;;;;;;14.05;10.77;;;;;;;;;;2054775;28;20158;-86
2023/05/16 05:30:53;;;;;;;15.93;10.63;;;;;;;;;;2054471;28;20022;-87
2023/05/16 05:31:53;;;;;;;11.93;9.93;;;;;;;;;;1368730;28;10001377;-85
2023/05/16 05:32:54;;;;;;;;;;;;;;;;;;1695860;28;10469494;-87
2023/05/16 05:33:55;;;;;;;12.40;10.57;;;;;;;;;;2046232;28;19926;-87
2023/05/16 05:34:59;;;;;;;15.80;10.18;;;;;;;;;;1838079;28;10132223;-87
2023/05/16 05:36:00;;;;;;;14.63;10.77;;;;;;;;;;2054150;28;20720;-88
2023/05/16 05:37:00;;;;;;;13.00;9.77;;;;;;;;;;2054414;28;20477;-87
2023/05/16 05:38:01;;;;;;;12.30;10.55;;;;;;;;;;2055176;28;20049;-87
2023/05/16 05:39:01;;;;;;;20.88;10.73;;;;;;;;;;2054942;28;20096;-87
2023/05/16 05:40:02;;;;;;;15.80;11.70;;;;;;;;;;2064635;28;20010;-88
2023/05/16 05:41:04;;;;;;;16.42;10.85;;;;;;;;;;2064988;28;20015;-88
2023/05/16 05:42:05;;;;;;;12.73;9.80;;;;;;;;;;2065037;28;20193;-88
2023/05/16 05:43:05;;;;;;;13.32;9.88;;;;;;;;;;2064592;28;20046;-88
2023/05/16 05:44:05;;;;;;;13.48;9.80;;;;;;;;;;2063789;28;20233;-88
2023/05/16 05:45:06;;;;;;;14.00;10.10;;;;;;;;;;2059052;28;20038;-87
2023/05/16 05:46:07;;;;;;;10.38;8.93;;;;;;;;;;2055268;28;20379;-87
2023/05/16 05:47:08;;;;;;;11.50;8.95;;;;;;;;;;1705954;28;10268847;-85
2023/05/16 05:48:14;;;;;;;14.88;9.88;;;;;;;;;;2054706;28;20554;-87
2023/05/16 05:49:15;;;;;;;15.40;10.15;;;;;;;;;;2046657;28;20491;-88
2023/05/16 05:50:15;;;;;;;11.95;9.82;;;;;;;;;;2054219;28;20121;-88
2023/05/16 05:51:18;;;;;;;14.07;9.77;;;;;;;;;;2054297;28;20034;-87
2023/05/16 05:52:22;;;;;;;13.68;10.20;;;;;;;;;;2046543;28;20106;-88
2023/05/16 05:53:34;;;;;;;15.45;10.68;;;;;;;;;;1702385;28;10251434;-88
2023/05/16 05:54:35;;;;;;;17.90;10.30;;;;;;;;;;2054256;28;20170;-87
2023/05/16 05:55:36;;;;;;;14.32;10.30;;;;;;;;;;2054609;28;20027;-87
2023/05/16 05:56:36;;;;;;;13.10;9.57;;;;;;;;;;2054202;28;20027;-87
2023/05/16 05:57:38;;;;;;;15.48;11.65;;;;;;;;;;2056535;28;20628;-87
2023/05/16 05:58:40;;;;;;;14.57;10.60;;;;;;;;;;2064557;28;20019;-87
2023/05/16 05:59:44;;;;;;;15.75;10.32;;;;;;;;;;2064543;28;20034;-87